sensor_id;sensor_type;location;lat;lon;timestamp;P1;durP1;ratioP1;P2;durP2;ratioP2
22543;SDS011;11438;52.044;8.716;2024-03-02T00:00:08;7.07;;;5.50;;
22543;SDS011;11438;52.044;8.716;2024-03-02T00:02:46;8.52;;;5.38;;
22543;SDS011;11438;52.044;8.716;2024-03-02T00:05:15;7.70;;;5.65;;
22543;SDS011;11438;52.044;8.716;2024-03-02T00:07:46;7.45;;;5.47;;
22543;SDS011;11438;52.044;8.716;2024-03-02T00:10:19;6.72;;;5.18;;
22543;SDS011;11438;52.044;8.716;2024-03-02T00:12:48;8.13;;;5.30;;
22543;SDS011;11438;52.044;8.716;2024-03-02T00:15:24;8.38;;;5.50;;
22543;SDS011;11438;52.044;8.716;2024-03-02T00:18:03;7.80;;;4.80;;
22543;SDS011;11438;52.044;8.716;2024-03-02T00:20:29;7.38;;;5.53;;
22543;SDS011;11438;52.044;8.716;2024-03-02T00:23:01;8.70;;;5.57;;
22543;SDS011;11438;52.044;8.716;2024-03-02T00:25:42;7.18;;;5.30;;
22543;SDS011;11438;52.044;8.716;2024-03-02T00:28:27;6.57;;;5.05;;
22543;SDS011;11438;52.044;8.716;2024-03-02T00:31:05;7.28;;;5.40;;
22543;SDS011;11438;52.044;8.716;2024-03-02T00:33:33;5.85;;;4.80;;
22543;SDS011;11438;52.044;8.716;2024-03-02T00:36:05;6.93;;;5.13;;
22543;SDS011;11438;52.044;8.716;2024-03-02T00:38:31;6.82;;;5.07;;
22543;SDS011;11438;52.044;8.716;2024-03-02T00:41:04;6.90;;;5.07;;
22543;SDS011;11438;52.044;8.716;2024-03-02T00:43:47;6.30;;;4.72;;
22543;SDS011;11438;52.044;8.716;2024-03-02T00:46:21;6.60;;;5.13;;
22543;SDS011;11438;52.044;8.716;2024-03-02T00:48:51;7.65;;;5.40;;
22543;SDS011;11438;52.044;8.716;2024-03-02T00:51:22;5.63;;;4.22;;
22543;SDS011;11438;52.044;8.716;2024-03-02T00:53:48;7.35;;;5.15;;
22543;SDS011;11438;52.044;8.716;2024-03-02T00:56:14;8.30;;;5.72;;
22543;SDS011;11438;52.044;8.716;2024-03-02T00:58:40;7.13;;;5.30;;
22543;SDS011;11438;52.044;8.716;2024-03-02T01:01:06;7.68;;;5.30;;
22543;SDS011;11438;52.044;8.716;2024-03-02T01:03:32;6.95;;;5.35;;
22543;SDS011;11438;52.044;8.716;2024-03-02T01:05:58;9.02;;;5.60;;
22543;SDS011;11438;52.044;8.716;2024-03-02T01:08:24;8.00;;;5.90;;
22543;SDS011;11438;52.044;8.716;2024-03-02T01:10:50;7.35;;;5.68;;
22543;SDS011;11438;52.044;8.716;2024-03-02T01:13:15;6.80;;;5.43;;
22543;SDS011;11438;52.044;8.716;2024-03-02T01:15:41;10.60;;;5.38;;
22543;SDS011;11438;52.044;8.716;2024-03-02T01:18:06;6.43;;;5.18;;
22543;SDS011;11438;52.044;8.716;2024-03-02T01:20:32;6.32;;;4.88;;
22543;SDS011;11438;52.044;8.716;2024-03-02T01:22:58;7.53;;;5.28;;
22543;SDS011;11438;52.044;8.716;2024-03-02T01:25:23;5.78;;;4.25;;
22543;SDS011;11438;52.044;8.716;2024-03-02T01:27:49;6.40;;;4.68;;
22543;SDS011;11438;52.044;8.716;2024-03-02T01:30:15;6.68;;;4.95;;
22543;SDS011;11438;52.044;8.716;2024-03-02T01:32:41;6.50;;;4.93;;
22543;SDS011;11438;52.044;8.716;2024-03-02T01:35:06;7.40;;;5.35;;
22543;SDS011;11438;52.044;8.716;2024-03-02T01:37:32;6.90;;;5.00;;
22543;SDS011;11438;52.044;8.716;2024-03-02T01:39:58;10.02;;;5.82;;
22543;SDS011;11438;52.044;8.716;2024-03-02T01:42:23;7.28;;;5.50;;
22543;SDS011;11438;52.044;8.716;2024-03-02T01:44:49;6.93;;;5.60;;
22543;SDS011;11438;52.044;8.716;2024-03-02T01:47:15;8.70;;;5.95;;
22543;SDS011;11438;52.044;8.716;2024-03-02T01:49:40;7.88;;;6.00;;
22543;SDS011;11438;52.044;8.716;2024-03-02T01:52:06;7.93;;;5.90;;
22543;SDS011;11438;52.044;8.716;2024-03-02T01:54:32;8.60;;;6.30;;
22543;SDS011;11438;52.044;8.716;2024-03-02T01:56:58;7.82;;;5.90;;
22543;SDS011;11438;52.044;8.716;2024-03-02T01:59:24;8.27;;;6.10;;
22543;SDS011;11438;52.044;8.716;2024-03-02T02:01:50;9.10;;;6.90;;
22543;SDS011;11438;52.044;8.716;2024-03-02T02:04:15;8.82;;;6.55;;
22543;SDS011;11438;52.044;8.716;2024-03-02T02:06:41;10.13;;;7.22;;
22543;SDS011;11438;52.044;8.716;2024-03-02T02:09:09;9.50;;;6.93;;
22543;SDS011;11438;52.044;8.716;2024-03-02T02:11:35;9.65;;;6.63;;
22543;SDS011;11438;52.044;8.716;2024-03-02T02:14:00;10.43;;;7.63;;
22543;SDS011;11438;52.044;8.716;2024-03-02T02:16:26;11.20;;;7.78;;
22543;SDS011;11438;52.044;8.716;2024-03-02T02:18:51;9.88;;;7.18;;
22543;SDS011;11438;52.044;8.716;2024-03-02T02:21:17;11.48;;;7.47;;
22543;SDS011;11438;52.044;8.716;2024-03-02T02:23:42;12.25;;;7.93;;
22543;SDS011;11438;52.044;8.716;2024-03-02T02:26:13;10.00;;;7.25;;
22543;SDS011;11438;52.044;8.716;2024-03-02T02:28:38;10.03;;;6.90;;
22543;SDS011;11438;52.044;8.716;2024-03-02T02:31:11;9.43;;;6.90;;
22543;SDS011;11438;52.044;8.716;2024-03-02T02:33:38;9.07;;;6.63;;
22543;SDS011;11438;52.044;8.716;2024-03-02T02:36:05;8.60;;;6.30;;
22543;SDS011;11438;52.044;8.716;2024-03-02T02:38:30;10.05;;;6.57;;
22543;SDS011;11438;52.044;8.716;2024-03-02T02:40:58;9.32;;;6.75;;
22543;SDS011;11438;52.044;8.716;2024-03-02T02:43:23;8.73;;;6.72;;
22543;SDS011;11438;52.044;8.716;2024-03-02T02:45:49;9.90;;;6.60;;
22543;SDS011;11438;52.044;8.716;2024-03-02T02:48:14;9.52;;;6.70;;
22543;SDS011;11438;52.044;8.716;2024-03-02T02:50:41;9.68;;;6.82;;
22543;SDS011;11438;52.044;8.716;2024-03-02T02:53:06;10.30;;;6.53;;
22543;SDS011;11438;52.044;8.716;2024-03-02T02:55:34;8.43;;;6.45;;
22543;SDS011;11438;52.044;8.716;2024-03-02T02:58:05;8.90;;;6.63;;
22543;SDS011;11438;52.044;8.716;2024-03-02T03:00:34;8.47;;;6.40;;
22543;SDS011;11438;52.044;8.716;2024-03-02T03:02:59;9.07;;;6.38;;
22543;SDS011;11438;52.044;8.716;2024-03-02T03:05:24;11.73;;;6.90;;
22543;SDS011;11438;52.044;8.716;2024-03-02T03:07:50;9.07;;;6.35;;
22543;SDS011;11438;52.044;8.716;2024-03-02T03:10:16;8.67;;;6.27;;
22543;SDS011;11438;52.044;8.716;2024-03-02T03:12:42;8.80;;;6.50;;
22543;SDS011;11438;52.044;8.716;2024-03-02T03:15:08;8.23;;;6.18;;
22543;SDS011;11438;52.044;8.716;2024-03-02T03:17:35;7.63;;;5.70;;
22543;SDS011;11438;52.044;8.716;2024-03-02T03:20:01;9.32;;;6.80;;
22543;SDS011;11438;52.044;8.716;2024-03-02T03:22:27;10.93;;;7.07;;
22543;SDS011;11438;52.044;8.716;2024-03-02T03:24:52;9.77;;;7.13;;
22543;SDS011;11438;52.044;8.716;2024-03-02T03:27:18;8.68;;;6.13;;
22543;SDS011;11438;52.044;8.716;2024-03-02T03:29:44;8.65;;;6.63;;
22543;SDS011;11438;52.044;8.716;2024-03-02T03:32:10;9.93;;;7.00;;
22543;SDS011;11438;52.044;8.716;2024-03-02T03:34:35;8.80;;;6.50;;
22543;SDS011;11438;52.044;8.716;2024-03-02T03:37:01;9.63;;;6.90;;
22543;SDS011;11438;52.044;8.716;2024-03-02T03:39:27;9.85;;;6.90;;
22543;SDS011;11438;52.044;8.716;2024-03-02T03:41:53;9.27;;;6.38;;
22543;SDS011;11438;52.044;8.716;2024-03-02T03:44:19;9.90;;;6.15;;
22543;SDS011;11438;52.044;8.716;2024-03-02T03:46:44;9.18;;;6.18;;
22543;SDS011;11438;52.044;8.716;2024-03-02T03:49:10;9.27;;;6.70;;
22543;SDS011;11438;52.044;8.716;2024-03-02T03:51:35;8.35;;;6.15;;
22543;SDS011;11438;52.044;8.716;2024-03-02T03:54:01;8.82;;;6.40;;
22543;SDS011;11438;52.044;8.716;2024-03-02T03:56:26;9.13;;;6.07;;
22543;SDS011;11438;52.044;8.716;2024-03-02T03:58:52;9.63;;;5.80;;
22543;SDS011;11438;52.044;8.716;2024-03-02T04:01:18;9.48;;;6.07;;
22543;SDS011;11438;52.044;8.716;2024-03-02T04:03:43;8.48;;;6.43;;
22543;SDS011;11438;52.044;8.716;2024-03-02T04:06:09;9.93;;;6.53;;
22543;SDS011;11438;52.044;8.716;2024-03-02T04:08:34;9.63;;;5.75;;
22543;SDS011;11438;52.044;8.716;2024-03-02T04:10:59;9.10;;;6.47;;
22543;SDS011;11438;52.044;8.716;2024-03-02T04:13:25;9.40;;;6.25;;
22543;SDS011;11438;52.044;8.716;2024-03-02T04:15:50;8.55;;;6.45;;
22543;SDS011;11438;52.044;8.716;2024-03-02T04:18:16;9.43;;;6.50;;
22543;SDS011;11438;52.044;8.716;2024-03-02T04:20:41;9.52;;;6.60;;
22543;SDS011;11438;52.044;8.716;2024-03-02T04:23:07;9.67;;;7.00;;
22543;SDS011;11438;52.044;8.716;2024-03-02T04:25:33;10.45;;;6.53;;
22543;SDS011;11438;52.044;8.716;2024-03-02T04:27:58;11.05;;;7.57;;
22543;SDS011;11438;52.044;8.716;2024-03-02T04:30:24;8.48;;;6.55;;
22543;SDS011;11438;52.044;8.716;2024-03-02T04:32:50;9.00;;;6.53;;
22543;SDS011;11438;52.044;8.716;2024-03-02T04:35:15;10.25;;;6.65;;
22543;SDS011;11438;52.044;8.716;2024-03-02T04:37:41;9.18;;;6.43;;
22543;SDS011;11438;52.044;8.716;2024-03-02T04:40:07;10.93;;;7.63;;
22543;SDS011;11438;52.044;8.716;2024-03-02T04:42:33;10.98;;;7.45;;
22543;SDS011;11438;52.044;8.716;2024-03-02T04:44:59;9.93;;;7.13;;
22543;SDS011;11438;52.044;8.716;2024-03-02T04:47:25;13.50;;;7.93;;
22543;SDS011;11438;52.044;8.716;2024-03-02T04:49:50;11.65;;;7.38;;
22543;SDS011;11438;52.044;8.716;2024-03-02T04:52:16;10.10;;;7.37;;
22543;SDS011;11438;52.044;8.716;2024-03-02T04:54:42;13.97;;;8.50;;
22543;SDS011;11438;52.044;8.716;2024-03-02T04:57:26;10.05;;;7.32;;
22543;SDS011;11438;52.044;8.716;2024-03-02T04:59:52;10.82;;;7.25;;
22543;SDS011;11438;52.044;8.716;2024-03-02T05:02:17;12.38;;;7.95;;
22543;SDS011;11438;52.044;8.716;2024-03-02T05:04:43;10.25;;;6.85;;
22543;SDS011;11438;52.044;8.716;2024-03-02T05:07:08;11.47;;;7.93;;
22543;SDS011;11438;52.044;8.716;2024-03-02T05:09:34;11.45;;;7.05;;
22543;SDS011;11438;52.044;8.716;2024-03-02T05:11:59;11.10;;;7.18;;
22543;SDS011;11438;52.044;8.716;2024-03-02T05:14:54;10.15;;;7.25;;
22543;SDS011;11438;52.044;8.716;2024-03-02T05:17:20;10.50;;;7.37;;
22543;SDS011;11438;52.044;8.716;2024-03-02T05:19:46;11.63;;;7.60;;
22543;SDS011;11438;52.044;8.716;2024-03-02T05:22:11;11.52;;;7.47;;
22543;SDS011;11438;52.044;8.716;2024-03-02T05:24:37;12.20;;;8.07;;
22543;SDS011;11438;52.044;8.716;2024-03-02T05:27:02;10.10;;;7.30;;
22543;SDS011;11438;52.044;8.716;2024-03-02T05:29:28;11.43;;;7.10;;
22543;SDS011;11438;52.044;8.716;2024-03-02T05:31:53;9.38;;;6.90;;
22543;SDS011;11438;52.044;8.716;2024-03-02T05:34:19;10.65;;;6.95;;
22543;SDS011;11438;52.044;8.716;2024-03-02T05:36:44;11.93;;;7.93;;
22543;SDS011;11438;52.044;8.716;2024-03-02T05:39:10;10.02;;;7.00;;
22543;SDS011;11438;52.044;8.716;2024-03-02T05:41:35;12.23;;;7.77;;
22543;SDS011;11438;52.044;8.716;2024-03-02T05:44:01;10.77;;;7.22;;
22543;SDS011;11438;52.044;8.716;2024-03-02T05:46:26;11.50;;;7.43;;
22543;SDS011;11438;52.044;8.716;2024-03-02T05:48:52;10.00;;;7.13;;
22543;SDS011;11438;52.044;8.716;2024-03-02T05:51:18;10.70;;;7.13;;
22543;SDS011;11438;52.044;8.716;2024-03-02T05:53:43;11.35;;;7.43;;
22543;SDS011;11438;52.044;8.716;2024-03-02T05:56:09;12.27;;;7.78;;
22543;SDS011;11438;52.044;8.716;2024-03-02T05:58:34;11.23;;;7.55;;
22543;SDS011;11438;52.044;8.716;2024-03-02T06:01:15;11.93;;;8.07;;
22543;SDS011;11438;52.044;8.716;2024-03-02T06:03:40;11.07;;;7.60;;
22543;SDS011;11438;52.044;8.716;2024-03-02T06:06:06;13.15;;;8.15;;
22543;SDS011;11438;52.044;8.716;2024-03-02T06:08:31;12.25;;;7.68;;
22543;SDS011;11438;52.044;8.716;2024-03-02T06:10:57;12.05;;;8.05;;
22543;SDS011;11438;52.044;8.716;2024-03-02T06:13:23;14.30;;;8.57;;
22543;SDS011;11438;52.044;8.716;2024-03-02T06:15:50;14.93;;;9.17;;
22543;SDS011;11438;52.044;8.716;2024-03-02T06:18:16;13.15;;;8.52;;
22543;SDS011;11438;52.044;8.716;2024-03-02T06:20:41;13.50;;;8.85;;
22543;SDS011;11438;52.044;8.716;2024-03-02T06:23:06;13.43;;;8.02;;
22543;SDS011;11438;52.044;8.716;2024-03-02T06:25:32;12.23;;;8.63;;
22543;SDS011;11438;52.044;8.716;2024-03-02T06:27:57;14.38;;;8.68;;
22543;SDS011;11438;52.044;8.716;2024-03-02T06:30:23;12.97;;;7.90;;
22543;SDS011;11438;52.044;8.716;2024-03-02T06:32:48;11.77;;;7.70;;
22543;SDS011;11438;52.044;8.716;2024-03-02T06:35:14;13.93;;;8.48;;
22543;SDS011;11438;52.044;8.716;2024-03-02T06:37:39;14.18;;;9.20;;
22543;SDS011;11438;52.044;8.716;2024-03-02T06:40:05;14.90;;;8.50;;
22543;SDS011;11438;52.044;8.716;2024-03-02T06:42:32;15.02;;;9.15;;
22543;SDS011;11438;52.044;8.716;2024-03-02T06:44:58;14.13;;;9.20;;
22543;SDS011;11438;52.044;8.716;2024-03-02T06:47:24;12.63;;;8.83;;
22543;SDS011;11438;52.044;8.716;2024-03-02T06:49:50;13.93;;;9.37;;
22543;SDS011;11438;52.044;8.716;2024-03-02T06:52:15;13.57;;;8.97;;
22543;SDS011;11438;52.044;8.716;2024-03-02T06:54:41;14.43;;;9.43;;
22543;SDS011;11438;52.044;8.716;2024-03-02T06:57:06;15.48;;;10.13;;
22543;SDS011;11438;52.044;8.716;2024-03-02T06:59:32;14.00;;;9.10;;
22543;SDS011;11438;52.044;8.716;2024-03-02T07:01:58;14.00;;;9.18;;
22543;SDS011;11438;52.044;8.716;2024-03-02T07:04:24;12.30;;;8.75;;
22543;SDS011;11438;52.044;8.716;2024-03-02T07:06:49;15.15;;;9.55;;
22543;SDS011;11438;52.044;8.716;2024-03-02T07:09:16;14.23;;;9.02;;
22543;SDS011;11438;52.044;8.716;2024-03-02T07:11:41;16.48;;;9.73;;
22543;SDS011;11438;52.044;8.716;2024-03-02T07:14:07;14.23;;;9.32;;
22543;SDS011;11438;52.044;8.716;2024-03-02T07:16:32;16.48;;;10.23;;
22543;SDS011;11438;52.044;8.716;2024-03-02T07:18:59;14.65;;;9.40;;
22543;SDS011;11438;52.044;8.716;2024-03-02T07:21:26;15.27;;;9.65;;
22543;SDS011;11438;52.044;8.716;2024-03-02T07:23:52;15.57;;;9.93;;
22543;SDS011;11438;52.044;8.716;2024-03-02T07:26:18;14.90;;;9.53;;
22543;SDS011;11438;52.044;8.716;2024-03-02T07:28:45;16.77;;;10.50;;
22543;SDS011;11438;52.044;8.716;2024-03-02T07:31:12;15.25;;;9.93;;
22543;SDS011;11438;52.044;8.716;2024-03-02T07:33:38;19.70;;;12.00;;
22543;SDS011;11438;52.044;8.716;2024-03-02T07:36:03;22.20;;;13.18;;
22543;SDS011;11438;52.044;8.716;2024-03-02T07:38:29;19.80;;;12.48;;
22543;SDS011;11438;52.044;8.716;2024-03-02T07:40:56;19.75;;;12.40;;
22543;SDS011;11438;52.044;8.716;2024-03-02T07:43:22;19.17;;;11.88;;
22543;SDS011;11438;52.044;8.716;2024-03-02T07:45:48;17.27;;;11.63;;
22543;SDS011;11438;52.044;8.716;2024-03-02T07:48:14;18.17;;;11.70;;
22543;SDS011;11438;52.044;8.716;2024-03-02T07:50:40;19.40;;;12.25;;
22543;SDS011;11438;52.044;8.716;2024-03-02T07:53:05;20.10;;;11.70;;
22543;SDS011;11438;52.044;8.716;2024-03-02T07:55:32;18.77;;;10.68;;
22543;SDS011;11438;52.044;8.716;2024-03-02T07:57:58;14.93;;;10.27;;
22543;SDS011;11438;52.044;8.716;2024-03-02T08:00:24;16.58;;;10.32;;
22543;SDS011;11438;52.044;8.716;2024-03-02T08:02:50;17.88;;;10.57;;
22543;SDS011;11438;52.044;8.716;2024-03-02T08:05:17;18.63;;;10.98;;
22543;SDS011;11438;52.044;8.716;2024-03-02T08:07:44;17.58;;;11.25;;
22543;SDS011;11438;52.044;8.716;2024-03-02T08:10:10;17.02;;;10.60;;
22543;SDS011;11438;52.044;8.716;2024-03-02T08:12:36;16.90;;;10.63;;
22543;SDS011;11438;52.044;8.716;2024-03-02T08:15:01;15.40;;;9.65;;
22543;SDS011;11438;52.044;8.716;2024-03-02T08:17:27;16.08;;;10.48;;
22543;SDS011;11438;52.044;8.716;2024-03-02T08:19:52;17.05;;;10.55;;
22543;SDS011;11438;52.044;8.716;2024-03-02T08:22:18;13.77;;;9.50;;
22543;SDS011;11438;52.044;8.716;2024-03-02T08:24:44;16.35;;;10.00;;
22543;SDS011;11438;52.044;8.716;2024-03-02T08:27:10;16.08;;;9.23;;
22543;SDS011;11438;52.044;8.716;2024-03-02T08:29:37;14.10;;;8.65;;
22543;SDS011;11438;52.044;8.716;2024-03-02T08:32:02;12.25;;;8.32;;
22543;SDS011;11438;52.044;8.716;2024-03-02T08:34:28;12.02;;;8.05;;
22543;SDS011;11438;52.044;8.716;2024-03-02T08:36:54;12.15;;;8.13;;
22543;SDS011;11438;52.044;8.716;2024-03-02T08:39:19;11.20;;;7.82;;
22543;SDS011;11438;52.044;8.716;2024-03-02T08:41:45;11.95;;;7.28;;
22543;SDS011;11438;52.044;8.716;2024-03-02T08:44:12;11.35;;;7.47;;
22543;SDS011;11438;52.044;8.716;2024-03-02T08:46:38;11.18;;;7.40;;
22543;SDS011;11438;52.044;8.716;2024-03-02T08:49:05;12.32;;;7.25;;
22543;SDS011;11438;52.044;8.716;2024-03-02T08:51:30;10.90;;;7.57;;
22543;SDS011;11438;52.044;8.716;2024-03-02T08:53:56;12.38;;;7.47;;
22543;SDS011;11438;52.044;8.716;2024-03-02T08:56:23;10.95;;;7.70;;
22543;SDS011;11438;52.044;8.716;2024-03-02T08:58:49;12.25;;;8.07;;
22543;SDS011;11438;52.044;8.716;2024-03-02T09:01:15;12.75;;;7.60;;
22543;SDS011;11438;52.044;8.716;2024-03-02T09:03:41;10.32;;;7.05;;
22543;SDS011;11438;52.044;8.716;2024-03-02T09:06:09;10.30;;;6.55;;
22543;SDS011;11438;52.044;8.716;2024-03-02T09:08:35;11.77;;;6.80;;
22543;SDS011;11438;52.044;8.716;2024-03-02T09:11:01;11.40;;;7.13;;
22543;SDS011;11438;52.044;8.716;2024-03-02T09:13:33;10.20;;;6.50;;
22543;SDS011;11438;52.044;8.716;2024-03-02T09:15:58;10.23;;;7.05;;
22543;SDS011;11438;52.044;8.716;2024-03-02T09:18:24;10.70;;;6.97;;
22543;SDS011;11438;52.044;8.716;2024-03-02T09:20:49;8.70;;;5.95;;
22543;SDS011;11438;52.044;8.716;2024-03-02T09:23:15;9.50;;;5.88;;
22543;SDS011;11438;52.044;8.716;2024-03-02T09:25:40;8.02;;;5.75;;
22543;SDS011;11438;52.044;8.716;2024-03-02T09:28:06;8.35;;;5.78;;
22543;SDS011;11438;52.044;8.716;2024-03-02T09:30:32;8.85;;;5.35;;
22543;SDS011;11438;52.044;8.716;2024-03-02T09:32:58;8.77;;;5.53;;
22543;SDS011;11438;52.044;8.716;2024-03-02T09:35:24;9.88;;;5.57;;
22543;SDS011;11438;52.044;8.716;2024-03-02T09:37:49;9.20;;;5.82;;
22543;SDS011;11438;52.044;8.716;2024-03-02T09:40:15;9.00;;;6.43;;
22543;SDS011;11438;52.044;8.716;2024-03-02T09:42:41;10.43;;;6.25;;
22543;SDS011;11438;52.044;8.716;2024-03-02T09:45:07;10.10;;;6.35;;
22543;SDS011;11438;52.044;8.716;2024-03-02T09:47:34;9.65;;;6.30;;
22543;SDS011;11438;52.044;8.716;2024-03-02T09:49:59;11.02;;;6.50;;
22543;SDS011;11438;52.044;8.716;2024-03-02T09:52:25;9.68;;;6.22;;
22543;SDS011;11438;52.044;8.716;2024-03-02T09:54:51;8.88;;;5.78;;
22543;SDS011;11438;52.044;8.716;2024-03-02T09:57:16;8.00;;;5.90;;
22543;SDS011;11438;52.044;8.716;2024-03-02T09:59:42;11.10;;;5.95;;
22543;SDS011;11438;52.044;8.716;2024-03-02T10:02:07;8.65;;;6.10;;
22543;SDS011;11438;52.044;8.716;2024-03-02T10:04:33;8.77;;;5.78;;
22543;SDS011;11438;52.044;8.716;2024-03-02T10:07:13;8.00;;;5.50;;
22543;SDS011;11438;52.044;8.716;2024-03-02T10:09:40;7.43;;;4.78;;
22543;SDS011;11438;52.044;8.716;2024-03-02T10:12:07;7.40;;;5.03;;
22543;SDS011;11438;52.044;8.716;2024-03-02T10:14:34;8.43;;;5.20;;
22543;SDS011;11438;52.044;8.716;2024-03-02T10:17:03;7.68;;;5.05;;
22543;SDS011;11438;52.044;8.716;2024-03-02T10:19:30;7.18;;;5.25;;
22543;SDS011;11438;52.044;8.716;2024-03-02T10:21:58;10.98;;;5.50;;
22543;SDS011;11438;52.044;8.716;2024-03-02T10:24:24;7.43;;;5.03;;
22543;SDS011;11438;52.044;8.716;2024-03-02T10:26:50;7.07;;;4.82;;
22543;SDS011;11438;52.044;8.716;2024-03-02T10:29:17;6.93;;;4.85;;
22543;SDS011;11438;52.044;8.716;2024-03-02T10:31:43;7.50;;;5.20;;
22543;SDS011;11438;52.044;8.716;2024-03-02T10:34:10;7.60;;;5.43;;
22543;SDS011;11438;52.044;8.716;2024-03-02T10:36:37;7.55;;;5.15;;
22543;SDS011;11438;52.044;8.716;2024-03-02T10:39:07;8.60;;;5.38;;
22543;SDS011;11438;52.044;8.716;2024-03-02T10:41:33;7.30;;;5.00;;
22543;SDS011;11438;52.044;8.716;2024-03-02T10:44:04;7.40;;;5.03;;
22543;SDS011;11438;52.044;8.716;2024-03-02T10:46:31;7.28;;;4.90;;
22543;SDS011;11438;52.044;8.716;2024-03-02T10:48:58;6.72;;;4.50;;
22543;SDS011;11438;52.044;8.716;2024-03-02T10:51:29;7.63;;;4.85;;
22543;SDS011;11438;52.044;8.716;2024-03-02T10:53:58;6.75;;;4.35;;
22543;SDS011;11438;52.044;8.716;2024-03-02T10:56:38;7.50;;;4.75;;
22543;SDS011;11438;52.044;8.716;2024-03-02T10:59:16;7.38;;;4.68;;
22543;SDS011;11438;52.044;8.716;2024-03-02T11:01:59;7.65;;;4.60;;
22543;SDS011;11438;52.044;8.716;2024-03-02T11:04:26;6.47;;;4.53;;
22543;SDS011;11438;52.044;8.716;2024-03-02T11:06:54;6.38;;;4.22;;
22543;SDS011;11438;52.044;8.716;2024-03-02T11:09:25;7.55;;;5.00;;
22543;SDS011;11438;52.044;8.716;2024-03-02T11:12:02;8.43;;;4.63;;
22543;SDS011;11438;52.044;8.716;2024-03-02T11:14:41;6.57;;;4.70;;
22543;SDS011;11438;52.044;8.716;2024-03-02T11:17:10;7.00;;;4.65;;
22543;SDS011;11438;52.044;8.716;2024-03-02T11:19:38;6.57;;;4.30;;
22543;SDS011;11438;52.044;8.716;2024-03-02T11:22:05;6.30;;;4.40;;
22543;SDS011;11438;52.044;8.716;2024-03-02T11:24:31;8.25;;;4.55;;
22543;SDS011;11438;52.044;8.716;2024-03-02T11:27:01;6.50;;;4.50;;
22543;SDS011;11438;52.044;8.716;2024-03-02T11:32:14;7.00;;;4.43;;
22543;SDS011;11438;52.044;8.716;2024-03-02T11:34:45;7.15;;;4.47;;
22543;SDS011;11438;52.044;8.716;2024-03-02T11:37:20;6.40;;;4.40;;
22543;SDS011;11438;52.044;8.716;2024-03-02T11:39:46;5.65;;;4.38;;
22543;SDS011;11438;52.044;8.716;2024-03-02T11:42:13;5.82;;;4.22;;
22543;SDS011;11438;52.044;8.716;2024-03-02T11:44:44;6.97;;;3.97;;
22543;SDS011;11438;52.044;8.716;2024-03-02T11:47:12;5.85;;;4.22;;
22543;SDS011;11438;52.044;8.716;2024-03-02T11:49:40;7.40;;;4.50;;
22543;SDS011;11438;52.044;8.716;2024-03-02T11:52:07;6.75;;;4.57;;
22543;SDS011;11438;52.044;8.716;2024-03-02T11:54:34;6.82;;;4.32;;
22543;SDS011;11438;52.044;8.716;2024-03-02T11:57:04;5.95;;;4.30;;
22543;SDS011;11438;52.044;8.716;2024-03-02T11:59:31;7.10;;;4.38;;
22543;SDS011;11438;52.044;8.716;2024-03-02T12:01:57;6.15;;;3.97;;
22543;SDS011;11438;52.044;8.716;2024-03-02T12:04:23;3.97;;;3.33;;
22543;SDS011;11438;52.044;8.716;2024-03-02T12:06:55;6.35;;;3.80;;
22543;SDS011;11438;52.044;8.716;2024-03-02T12:09:22;7.38;;;3.78;;
22543;SDS011;11438;52.044;8.716;2024-03-02T12:11:47;5.63;;;3.70;;
22543;SDS011;11438;52.044;8.716;2024-03-02T12:14:13;7.32;;;3.80;;
22543;SDS011;11438;52.044;8.716;2024-03-02T12:16:38;5.70;;;3.58;;
22543;SDS011;11438;52.044;8.716;2024-03-02T12:19:05;4.97;;;3.70;;
22543;SDS011;11438;52.044;8.716;2024-03-02T12:21:31;5.93;;;3.38;;
22543;SDS011;11438;52.044;8.716;2024-03-02T12:23:57;5.85;;;3.50;;
22543;SDS011;11438;52.044;8.716;2024-03-02T12:26:22;6.00;;;3.83;;
22543;SDS011;11438;52.044;8.716;2024-03-02T12:28:48;5.38;;;3.50;;
22543;SDS011;11438;52.044;8.716;2024-03-02T12:31:14;8.13;;;4.90;;
22543;SDS011;11438;52.044;8.716;2024-03-02T12:33:40;6.57;;;4.72;;
22543;SDS011;11438;52.044;8.716;2024-03-02T12:36:09;4.88;;;3.88;;
22543;SDS011;11438;52.044;8.716;2024-03-02T12:38:34;5.93;;;3.53;;
22543;SDS011;11438;52.044;8.716;2024-03-02T12:41:00;4.78;;;3.33;;
22543;SDS011;11438;52.044;8.716;2024-03-02T12:43:29;6.03;;;3.80;;
22543;SDS011;11438;52.044;8.716;2024-03-02T12:45:56;4.78;;;3.17;;
22543;SDS011;11438;52.044;8.716;2024-03-02T12:48:22;5.78;;;3.35;;
22543;SDS011;11438;52.044;8.716;2024-03-02T12:50:47;5.70;;;3.35;;
22543;SDS011;11438;52.044;8.716;2024-03-02T12:53:16;6.07;;;3.15;;
22543;SDS011;11438;52.044;8.716;2024-03-02T12:55:42;5.10;;;3.30;;
22543;SDS011;11438;52.044;8.716;2024-03-02T12:58:15;4.55;;;3.30;;
22543;SDS011;11438;52.044;8.716;2024-03-02T13:00:46;4.93;;;3.00;;
22543;SDS011;11438;52.044;8.716;2024-03-02T13:03:12;3.70;;;2.90;;
22543;SDS011;11438;52.044;8.716;2024-03-02T13:05:38;3.72;;;2.60;;
22543;SDS011;11438;52.044;8.716;2024-03-02T13:08:04;2.95;;;2.30;;
22543;SDS011;11438;52.044;8.716;2024-03-02T13:10:31;4.88;;;2.70;;
22543;SDS011;11438;52.044;8.716;2024-03-02T13:12:57;6.35;;;4.03;;
22543;SDS011;11438;52.044;8.716;2024-03-02T13:15:23;3.53;;;2.33;;
22543;SDS011;11438;52.044;8.716;2024-03-02T13:17:51;3.63;;;2.30;;
22543;SDS011;11438;52.044;8.716;2024-03-02T13:20:16;3.53;;;2.47;;
22543;SDS011;11438;52.044;8.716;2024-03-02T13:22:43;3.78;;;2.47;;
22543;SDS011;11438;52.044;8.716;2024-03-02T13:25:08;5.63;;;3.65;;
22543;SDS011;11438;52.044;8.716;2024-03-02T13:27:35;3.63;;;2.40;;
22543;SDS011;11438;52.044;8.716;2024-03-02T13:30:01;4.80;;;2.97;;
22543;SDS011;11438;52.044;8.716;2024-03-02T13:32:27;4.00;;;2.53;;
22543;SDS011;11438;52.044;8.716;2024-03-02T13:34:53;5.30;;;2.40;;
22543;SDS011;11438;52.044;8.716;2024-03-02T13:37:19;3.42;;;2.35;;
22543;SDS011;11438;52.044;8.716;2024-03-02T13:39:45;2.88;;;2.30;;
22543;SDS011;11438;52.044;8.716;2024-03-02T13:42:11;2.47;;;2.08;;
22543;SDS011;11438;52.044;8.716;2024-03-02T13:44:39;3.10;;;2.10;;
22543;SDS011;11438;52.044;8.716;2024-03-02T13:47:04;5.18;;;1.80;;
22543;SDS011;11438;52.044;8.716;2024-03-02T13:49:30;2.13;;;1.58;;
22543;SDS011;11438;52.044;8.716;2024-03-02T13:52:01;3.83;;;2.00;;
22543;SDS011;11438;52.044;8.716;2024-03-02T13:54:29;3.35;;;2.28;;
22543;SDS011;11438;52.044;8.716;2024-03-02T13:56:55;2.15;;;1.55;;
22543;SDS011;11438;52.044;8.716;2024-03-02T13:59:24;3.28;;;1.70;;
22543;SDS011;11438;52.044;8.716;2024-03-02T14:01:51;2.08;;;1.45;;
22543;SDS011;11438;52.044;8.716;2024-03-02T14:04:16;4.40;;;2.50;;
22543;SDS011;11438;52.044;8.716;2024-03-02T14:06:42;3.75;;;1.90;;
22543;SDS011;11438;52.044;8.716;2024-03-02T14:09:08;4.90;;;2.42;;
22543;SDS011;11438;52.044;8.716;2024-03-02T14:11:34;3.67;;;1.92;;
22543;SDS011;11438;52.044;8.716;2024-03-02T14:14:00;2.95;;;1.45;;
22543;SDS011;11438;52.044;8.716;2024-03-02T14:16:26;2.35;;;1.90;;
22543;SDS011;11438;52.044;8.716;2024-03-02T14:18:52;3.13;;;1.73;;
22543;SDS011;11438;52.044;8.716;2024-03-02T14:21:17;4.13;;;1.80;;
22543;SDS011;11438;52.044;8.716;2024-03-02T14:23:43;2.17;;;1.55;;
22543;SDS011;11438;52.044;8.716;2024-03-02T14:26:08;2.28;;;1.48;;
22543;SDS011;11438;52.044;8.716;2024-03-02T14:28:34;2.33;;;1.40;;
22543;SDS011;11438;52.044;8.716;2024-03-02T14:30:59;2.47;;;1.40;;
22543;SDS011;11438;52.044;8.716;2024-03-02T14:33:26;2.00;;;1.15;;
22543;SDS011;11438;52.044;8.716;2024-03-02T14:35:52;2.08;;;1.33;;
22543;SDS011;11438;52.044;8.716;2024-03-02T14:38:18;1.27;;;0.90;;
22543;SDS011;11438;52.044;8.716;2024-03-02T14:40:44;1.98;;;1.30;;
22543;SDS011;11438;52.044;8.716;2024-03-02T14:43:09;2.15;;;1.40;;